createdAt,value
2019-05-20T00:00:13.740Z,24.40
2019-05-20T00:01:13.774Z,24.60
2019-05-20T00:02:24.496Z,24.50
2019-05-20T00:03:14.757Z,24.40
2019-05-20T00:04:13.712Z,25.10
2019-05-20T00:05:13.693Z,27.30
2019-05-20T00:06:13.701Z,26.10
2019-05-20T00:07:13.664Z,25.00
2019-05-20T00:08:13.657Z,25.80
2019-05-20T00:09:13.683Z,29.50
2019-05-20T00:10:13.634Z,27.50
2019-05-20T00:11:13.643Z,26.80
2019-05-20T00:12:13.607Z,27.50
2019-05-20T00:13:13.651Z,26.40
2019-05-20T00:14:13.585Z,27.40
2019-05-20T00:15:13.580Z,26.00
2019-05-20T00:16:13.565Z,30.00
2019-05-20T00:17:13.572Z,30.80
2019-05-20T00:18:13.586Z,28.70
2019-05-20T00:19:13.531Z,29.70
2019-05-20T00:20:13.530Z,28.90
2019-05-20T00:21:13.508Z,28.50
2019-05-20T00:22:13.495Z,29.00
2019-05-20T00:23:13.550Z,30.80
2019-05-20T00:24:13.516Z,29.80
2019-05-20T00:25:13.463Z,31.30
2019-05-20T00:26:13.497Z,29.20
2019-05-20T00:27:13.465Z,30.10
2019-05-20T00:28:13.477Z,30.60
2019-05-20T00:29:13.428Z,30.30
2019-05-20T00:30:13.417Z,30.80
2019-05-20T00:31:13.406Z,30.10
2019-05-20T00:32:13.397Z,30.20
2019-05-20T00:33:13.380Z,29.40
2019-05-20T00:34:13.403Z,29.70
2019-05-20T00:35:13.367Z,29.60
2019-05-20T00:36:13.338Z,33.50
2019-05-20T00:37:13.426Z,30.60
2019-05-20T00:38:13.318Z,31.50
2019-05-20T00:39:13.309Z,31.30
2019-05-20T00:40:13.297Z,31.20
2019-05-20T00:41:13.298Z,32.20
2019-05-20T00:42:13.270Z,31.10
2019-05-20T00:43:13.299Z,31.70
2019-05-20T00:44:13.251Z,32.60
2019-05-20T00:45:13.241Z,33.10
2019-05-20T00:46:13.270Z,34.40
2019-05-20T00:47:13.236Z,34.00
2019-05-20T00:48:13.213Z,35.80
2019-05-20T00:49:13.221Z,35.90
2019-05-20T00:50:13.197Z,34.50
2019-05-20T00:51:13.174Z,35.60
2019-05-20T00:52:13.244Z,35.40
2019-05-20T00:53:13.159Z,38.10
2019-05-20T00:54:13.139Z,37.10
2019-05-20T00:55:13.135Z,35.50
2019-05-20T00:56:13.115Z,35.30
2019-05-20T00:57:13.153Z,37.40
2019-05-20T00:58:13.116Z,36.70
2019-05-20T00:59:13.091Z,39.70
2019-05-20T01:00:13.080Z,37.20
2019-05-20T01:01:13.103Z,36.30
2019-05-20T01:02:13.091Z,37.40
2019-05-20T01:03:13.037Z,38.00
2019-05-20T01:04:13.026Z,38.80
2019-05-20T01:05:13.021Z,38.20
2019-05-20T01:06:13.003Z,40.90
2019-05-20T01:07:12.991Z,40.00
2019-05-20T01:08:13.017Z,39.60
2019-05-20T01:09:12.973Z,41.90
2019-05-20T01:10:12.966Z,41.50
2019-05-20T01:11:13.000Z,41.10
2019-05-20T01:12:12.934Z,42.40
2019-05-20T01:13:12.926Z,42.80
2019-05-20T01:14:12.915Z,43.50
2019-05-20T01:15:12.907Z,44.70
2019-05-20T01:16:12.939Z,44.40
2019-05-20T01:17:12.878Z,44.50
2019-05-20T01:18:12.870Z,43.40
2019-05-20T01:19:12.857Z,46.90
2019-05-20T01:20:12.895Z,44.30
2019-05-20T01:21:12.841Z,46.30
2019-05-20T01:22:12.834Z,45.30
2019-05-20T01:23:12.852Z,44.50
2019-05-20T01:24:12.798Z,43.30
2019-05-20T01:25:12.788Z,42.90
2019-05-20T01:26:12.783Z,43.30
2019-05-20T01:27:12.812Z,44.70
2019-05-20T01:28:12.755Z,42.40
2019-05-20T01:29:12.762Z,42.00
2019-05-20T01:30:12.728Z,43.80
2019-05-20T01:31:12.727Z,46.30
2019-05-20T01:32:12.719Z,45.40
2019-05-20T01:33:14.418Z,46.60
2019-05-20T01:34:12.684Z,47.20
2019-05-20T01:35:12.691Z,46.20
2019-05-20T01:36:12.676Z,47.30
2019-05-20T01:37:12.662Z,44.60
2019-05-20T01:38:12.684Z,45.50
2019-05-20T01:39:12.631Z,44.80
2019-05-20T01:40:12.637Z,47.30
2019-05-20T01:41:12.613Z,47.40
2019-05-20T01:42:12.605Z,46.40
2019-05-20T01:43:12.631Z,46.20
2019-05-20T01:44:12.575Z,46.50
2019-05-20T01:45:12.607Z,45.10
2019-05-20T01:46:12.557Z,49.30
2019-05-20T01:47:12.543Z,48.50
2019-05-20T01:48:12.569Z,48.10
2019-05-20T01:49:12.536Z,46.40
2019-05-20T01:50:12.544Z,48.30
2019-05-20T01:51:12.497Z,48.80
2019-05-20T01:52:12.482Z,51.40
2019-05-20T01:53:12.478Z,49.60
2019-05-20T01:54:12.508Z,49.90
2019-05-20T01:55:12.458Z,48.70
2019-05-20T01:56:12.457Z,51.00
2019-05-20T01:57:12.441Z,53.10
2019-05-20T01:58:12.430Z,50.80
2019-05-20T01:59:12.403Z,53.00
2019-05-20T02:00:12.435Z,49.40
2019-05-20T02:01:12.386Z,50.20
2019-05-20T02:02:12.371Z,50.60
2019-05-20T02:03:12.365Z,50.10
2019-05-20T02:04:12.389Z,47.70
2019-05-20T02:05:12.337Z,51.60
2019-05-20T02:06:12.325Z,51.40
2019-05-20T02:07:12.357Z,52.10
2019-05-20T02:08:12.310Z,51.80
2019-05-20T02:09:12.293Z,51.10
2019-05-20T02:10:12.327Z,48.10
2019-05-20T02:11:12.270Z,49.20
2019-05-20T02:12:12.260Z,48.80
2019-05-20T02:13:12.245Z,51.60
2019-05-20T02:14:12.247Z,51.20
2019-05-20T02:15:12.277Z,52.40
2019-05-20T02:16:12.212Z,51.00
2019-05-20T02:17:12.204Z,52.00
2019-05-20T02:18:12.190Z,51.60
2019-05-20T02:19:12.200Z,50.10
2019-05-20T02:20:12.166Z,55.30
2019-05-20T02:21:12.207Z,53.60
2019-05-20T02:22:12.201Z,54.60
2019-05-20T02:23:12.132Z,53.20
2019-05-20T02:24:12.130Z,54.00
2019-05-20T02:25:12.114Z,51.80
2019-05-20T02:26:12.170Z,56.20
2019-05-20T02:27:12.129Z,58.00
2019-05-20T02:28:12.076Z,58.10
2019-05-20T02:29:12.110Z,57.60
2019-05-20T02:30:12.077Z,62.70
2019-05-20T02:31:12.044Z,58.10
2019-05-20T02:32:12.037Z,60.30
2019-05-20T02:33:12.019Z,63.30
2019-05-20T02:34:12.025Z,64.60
2019-05-20T02:35:12.050Z,63.50
2019-05-20T02:36:11.985Z,65.10
2019-05-20T02:37:11.975Z,66.80
2019-05-20T02:38:11.963Z,68.60
2019-05-20T02:39:11.961Z,70.80
2019-05-20T02:40:11.989Z,68.80
2019-05-20T02:41:11.939Z,72.40
2019-05-20T02:42:11.915Z,70.00
2019-05-20T02:43:11.908Z,70.00
2019-05-20T02:44:11.948Z,72.60
2019-05-20T02:45:11.882Z,77.40
2019-05-20T02:46:11.875Z,73.50
2019-05-20T02:47:11.912Z,77.00
2019-05-20T02:48:11.892Z,80.90
2019-05-20T02:49:11.881Z,78.10
2019-05-20T02:50:11.826Z,79.20
2019-05-20T02:51:11.823Z,76.50
2019-05-20T02:52:11.806Z,83.40
2019-05-20T02:53:11.839Z,80.50
2019-05-20T02:54:11.787Z,76.50
2019-05-20T02:55:11.782Z,77.60
2019-05-20T02:56:11.800Z,84.20
2019-05-20T02:57:11.754Z,78.50
2019-05-20T02:58:11.740Z,82.50
2019-05-20T02:59:11.767Z,81.20
2019-05-20T03:00:11.720Z,82.70
2019-05-20T03:01:11.762Z,84.30
2019-05-20T03:02:12.024Z,85.10
2019-05-20T03:03:11.682Z,82.60
2019-05-20T03:04:13.081Z,81.30
2019-05-20T03:05:11.659Z,82.50
2019-05-20T03:06:11.645Z,85.40
2019-05-20T03:07:11.691Z,92.00
2019-05-20T03:08:11.633Z,86.50
2019-05-20T03:09:12.479Z,90.70
2019-05-20T03:10:11.611Z,91.70
2019-05-20T03:11:11.590Z,91.00
2019-05-20T03:12:11.583Z,93.70
2019-05-20T03:13:11.570Z,84.80
2019-05-20T03:14:11.567Z,90.40
2019-05-20T03:15:11.597Z,87.20
2019-05-20T03:16:15.452Z,98.10
2019-05-20T03:17:11.525Z,94.10
2019-05-20T03:18:11.521Z,95.30
2019-05-20T03:19:11.549Z,96.80
2019-05-20T03:20:11.492Z,97.80
2019-05-20T03:21:11.480Z,101.90
2019-05-20T03:22:11.473Z,101.20
2019-05-20T03:23:11.457Z,101.40
2019-05-20T03:24:11.488Z,106.90
2019-05-20T03:25:11.459Z,99.30
2019-05-20T03:26:11.439Z,98.90
2019-05-20T03:27:11.413Z,98.20
2019-05-20T03:28:11.403Z,100.80
2019-05-20T03:29:11.435Z,99.00
2019-05-20T03:30:11.386Z,105.50
2019-05-20T03:31:11.438Z,103.80
2019-05-20T03:32:11.372Z,99.10
2019-05-20T03:33:11.395Z,101.40
2019-05-20T03:34:38.787Z,101.70
2019-05-20T03:35:12.329Z,97.30
2019-05-20T03:36:11.363Z,102.20
2019-05-20T03:37:11.299Z,106.40
2019-05-20T03:38:11.283Z,107.00
2019-05-20T03:39:11.281Z,106.80
2019-05-20T03:40:11.283Z,111.70
2019-05-20T03:41:11.264Z,113.70
2019-05-20T03:42:11.291Z,103.10
2019-05-20T03:43:11.230Z,110.30
2019-05-20T03:44:11.224Z,111.90
2019-05-20T03:45:11.221Z,115.50
2019-05-20T03:46:11.242Z,115.90
2019-05-20T03:47:11.194Z,113.00
2019-05-20T03:48:11.172Z,115.20
2019-05-20T03:49:11.174Z,123.40
2019-05-20T03:50:11.153Z,122.60
2019-05-20T03:51:11.181Z,115.30
2019-05-20T03:52:11.185Z,118.00
2019-05-20T03:53:11.168Z,122.10
2019-05-20T03:54:11.157Z,113.30
2019-05-20T03:55:11.148Z,115.50
2019-05-20T03:56:11.088Z,119.30
2019-05-20T03:57:11.075Z,120.80
2019-05-20T03:58:13.620Z,116.40
2019-05-20T03:59:11.051Z,110.60
2019-05-20T04:00:11.046Z,107.30
2019-05-20T04:01:11.115Z,109.20
2019-05-20T04:02:11.019Z,112.00
2019-05-20T04:03:11.009Z,114.60
2019-05-20T04:04:11.003Z,107.00
2019-05-20T04:05:11.042Z,103.70
2019-05-20T04:06:11.016Z,106.70
2019-05-20T04:07:11.001Z,111.70
2019-05-20T04:08:10.953Z,101.80
2019-05-20T04:09:10.943Z,105.00
2019-05-20T04:10:10.925Z,101.90
2019-05-20T04:11:10.916Z,97.60
2019-05-20T04:12:10.950Z,101.40
2019-05-20T04:13:10.892Z,101.70
2019-05-20T04:14:10.884Z,102.90
2019-05-20T04:15:10.874Z,98.20
2019-05-20T04:16:10.920Z,105.50
2019-05-20T04:17:10.889Z,101.00
2019-05-20T04:18:10.840Z,95.00
2019-05-20T04:19:10.828Z,97.70
2019-05-20T04:20:10.873Z,96.10
2019-05-20T04:21:10.802Z,97.80
2019-05-20T04:22:10.788Z,98.20
2019-05-20T04:23:10.829Z,95.70
2019-05-20T04:24:10.786Z,92.60
2019-05-20T04:25:10.774Z,93.90
2019-05-20T04:26:10.757Z,97.00
2019-05-20T04:27:10.911Z,97.50
2019-05-20T04:28:10.724Z,96.90
2019-05-20T04:29:10.758Z,93.80
2019-05-20T04:30:10.700Z,100.30
2019-05-20T04:31:10.728Z,98.50
2019-05-20T04:32:10.678Z,96.80
2019-05-20T04:33:10.710Z,94.50
2019-05-20T04:34:10.653Z,96.50
2019-05-20T04:35:22.187Z,97.00
2019-05-20T04:36:11.641Z,97.10
2019-05-20T04:37:10.667Z,94.10
2019-05-20T04:38:10.627Z,93.00
2019-05-20T04:39:10.603Z,96.50
2019-05-20T04:40:10.587Z,100.40
2019-05-20T04:41:10.618Z,93.80
2019-05-20T04:42:10.570Z,89.50
2019-05-20T04:43:10.553Z,96.10
2019-05-20T04:44:11.219Z,90.60
2019-05-20T04:45:10.560Z,88.00
2019-05-20T04:46:10.523Z,93.60
2019-05-20T04:47:10.511Z,89.10
2019-05-20T04:48:13.725Z,91.00
2019-05-20T04:49:10.525Z,82.60
2019-05-20T04:50:10.482Z,83.40
2019-05-20T04:51:10.511Z,86.10
2019-05-20T04:52:10.461Z,84.50
2019-05-20T04:53:10.448Z,84.30
2019-05-20T04:54:10.436Z,82.80
2019-05-20T04:55:10.421Z,87.90
2019-05-20T04:56:10.462Z,80.80
2019-05-20T04:57:10.407Z,83.30
2019-05-20T04:58:10.430Z,83.10
2019-05-20T04:59:10.382Z,81.90
2019-05-20T05:00:10.397Z,75.80
2019-05-20T05:01:10.371Z,82.80
2019-05-20T05:02:10.646Z,75.90
2019-05-20T05:03:10.337Z,82.40
2019-05-20T05:04:10.323Z,82.50
2019-05-20T05:05:10.326Z,80.00
2019-05-20T05:06:10.354Z,76.80
2019-05-20T05:07:10.282Z,84.40
2019-05-20T05:08:10.325Z,78.90
2019-05-20T05:09:10.284Z,79.60
2019-05-20T05:10:10.261Z,76.60
2019-05-20T05:11:10.302Z,78.20
2019-05-20T05:12:10.245Z,76.00
2019-05-20T05:13:10.264Z,76.00
2019-05-20T05:14:10.233Z,74.90
2019-05-20T05:15:10.230Z,77.10
2019-05-20T05:16:10.188Z,76.30
2019-05-20T05:17:10.213Z,78.70
2019-05-20T05:18:10.181Z,74.90
2019-05-20T05:19:10.797Z,73.10
2019-05-20T05:20:17.601Z,75.50
2019-05-20T05:21:11.129Z,71.60
2019-05-20T05:22:10.133Z,76.30
2019-05-20T05:23:10.117Z,71.00
2019-05-20T05:24:10.156Z,70.40
2019-05-20T05:25:10.089Z,69.20
2019-05-20T05:26:10.075Z,68.90
2019-05-20T05:27:10.064Z,72.10
2019-05-20T05:28:10.064Z,65.30
2019-05-20T05:29:10.041Z,66.50
2019-05-20T05:30:10.083Z,67.80
2019-05-20T05:31:10.033Z,63.10
2019-05-20T05:32:10.002Z,67.70
2019-05-20T05:33:10.071Z,64.70
2019-05-20T05:34:10.015Z,69.00
2019-05-20T05:35:10.227Z,69.10
2019-05-20T05:36:10.058Z,61.60
2019-05-20T05:37:09.951Z,62.60
2019-05-20T05:38:09.976Z,66.80
2019-05-20T05:39:10.705Z,65.70
2019-05-20T05:40:10.086Z,68.20
2019-05-20T05:41:09.902Z,65.20
2019-05-20T05:42:09.903Z,64.50
2019-05-20T05:43:09.939Z,61.30
2019-05-20T05:44:09.881Z,68.20
2019-05-20T05:45:09.892Z,63.10
2019-05-20T05:46:09.900Z,66.60
2019-05-20T05:47:09.842Z,67.40
2019-05-20T05:48:09.881Z,67.30
2019-05-20T05:49:09.881Z,66.50
2019-05-20T05:50:09.891Z,70.40
2019-05-20T05:51:09.858Z,68.10
2019-05-20T05:52:09.955Z,65.10
2019-05-20T05:53:09.971Z,68.20
2019-05-20T05:54:09.759Z,67.30
2019-05-20T05:55:09.779Z,64.80
2019-05-20T05:56:09.775Z,67.10
2019-05-20T05:57:09.721Z,67.10
2019-05-20T05:58:09.738Z,67.90
2019-05-20T05:59:09.809Z,63.10
2019-05-20T06:00:09.702Z,63.70
2019-05-20T06:01:09.718Z,64.30
2019-05-20T06:02:09.681Z,60.70
2019-05-20T06:03:09.680Z,70.30
2019-05-20T06:04:09.692Z,64.90
2019-05-20T06:05:09.638Z,66.80
2019-05-20T06:06:12.719Z,63.00
2019-05-20T06:07:09.635Z,63.00
2019-05-20T06:08:09.613Z,62.10
2019-05-20T06:09:09.660Z,66.00
2019-05-20T06:10:18.312Z,65.20
2019-05-20T06:11:09.579Z,64.70
2019-05-20T06:12:09.564Z,66.60
2019-05-20T06:13:09.560Z,65.20
2019-05-20T06:14:09.727Z,65.90
2019-05-20T06:15:09.582Z,65.00
2019-05-20T06:16:09.517Z,63.00
2019-05-20T06:17:09.554Z,63.80
2019-05-20T06:18:09.537Z,64.90
2019-05-20T06:19:09.479Z,61.80
2019-05-20T06:20:09.473Z,62.40
2019-05-20T06:21:09.509Z,64.00
2019-05-20T06:22:09.548Z,64.90
2019-05-20T06:23:09.441Z,68.20
2019-05-20T06:24:09.570Z,65.00
2019-05-20T06:25:09.507Z,66.80
2019-05-20T06:26:09.627Z,64.70
2019-05-20T06:27:09.748Z,64.40
2019-05-20T06:28:09.411Z,61.80
2019-05-20T06:29:09.404Z,64.90
2019-05-20T06:30:09.356Z,61.40
2019-05-20T06:31:09.367Z,62.00
2019-05-20T06:32:09.334Z,64.00
2019-05-20T06:33:09.377Z,64.40
2019-05-20T06:34:09.347Z,60.60
2019-05-20T06:35:09.370Z,60.80
2019-05-20T06:36:09.314Z,59.40
2019-05-20T06:37:09.281Z,60.20
2019-05-20T06:38:09.273Z,61.90
2019-05-20T06:39:09.307Z,60.20
2019-05-20T06:40:09.250Z,57.40
2019-05-20T06:41:09.261Z,55.90
2019-05-20T06:42:09.222Z,60.40
2019-05-20T06:43:09.257Z,59.20
2019-05-20T06:44:09.219Z,59.50
2019-05-20T06:45:11.104Z,57.60
2019-05-20T06:46:09.404Z,58.60
2019-05-20T06:47:09.241Z,59.40
2019-05-20T06:48:09.168Z,56.90
2019-05-20T06:49:09.347Z,55.80
2019-05-20T06:50:09.223Z,53.50
2019-05-20T06:51:09.125Z,57.60
2019-05-20T06:52:09.191Z,56.80
2019-05-20T06:53:09.126Z,57.60
2019-05-20T06:54:09.107Z,56.30
2019-05-20T06:55:09.144Z,57.50
2019-05-20T06:56:09.096Z,56.70
2019-05-20T06:57:09.088Z,57.00
2019-05-20T06:58:09.046Z,58.80
2019-05-20T06:59:09.072Z,55.50
2019-05-20T07:00:09.022Z,55.60
2019-05-20T07:01:09.055Z,55.80
2019-05-20T07:02:09.040Z,56.30
2019-05-20T07:03:08.986Z,55.70
2019-05-20T07:04:08.973Z,57.50
2019-05-20T07:05:09.000Z,57.20
2019-05-20T07:06:09.178Z,60.80
2019-05-20T07:07:20.377Z,56.40
2019-05-20T07:08:10.048Z,59.10
2019-05-20T07:09:08.963Z,58.40
2019-05-20T07:10:08.979Z,56.90
2019-05-20T07:11:08.937Z,54.70
2019-05-20T07:12:10.129Z,56.20
2019-05-20T07:13:09.213Z,61.80
2019-05-20T07:14:08.861Z,58.00
2019-05-20T07:15:09.195Z,56.30
2019-05-20T07:16:08.870Z,57.10
2019-05-20T07:17:09.134Z,57.20
2019-05-20T07:18:08.931Z,58.40
2019-05-20T07:19:08.916Z,53.20
2019-05-20T07:20:08.799Z,56.70
2019-05-20T07:21:08.919Z,55.20
2019-05-20T07:22:08.820Z,58.00
2019-05-20T07:23:09.625Z,57.20
2019-05-20T07:24:08.759Z,53.00
2019-05-20T07:25:08.869Z,56.60
2019-05-20T07:26:08.767Z,56.20
2019-05-20T07:27:08.796Z,56.50
2019-05-20T07:28:08.759Z,56.80
2019-05-20T07:29:08.817Z,55.50
2019-05-20T07:30:08.692Z,51.00
2019-05-20T07:31:08.690Z,50.30
2019-05-20T07:32:08.703Z,53.80
2019-05-20T07:33:08.715Z,49.20
2019-05-20T07:34:08.704Z,46.90
2019-05-20T07:35:08.636Z,51.90
2019-05-20T07:36:10.172Z,47.10
2019-05-20T07:37:08.624Z,46.90
2019-05-20T07:38:08.660Z,47.20
2019-05-20T07:39:08.585Z,47.90
2019-05-20T07:40:08.579Z,47.50
2019-05-20T07:41:08.621Z,50.00
2019-05-20T07:42:08.553Z,46.60
2019-05-20T07:43:08.591Z,52.30
2019-05-20T07:44:08.540Z,50.20
2019-05-20T07:45:08.562Z,48.70
2019-05-20T07:46:08.571Z,50.80
2019-05-20T07:47:10.898Z,46.60
2019-05-20T07:48:08.490Z,49.00
2019-05-20T07:49:08.562Z,47.40
2019-05-20T07:50:08.456Z,48.50
2019-05-20T07:51:08.472Z,49.60
2019-05-20T07:52:08.478Z,48.40
2019-05-20T07:53:08.491Z,47.40
2019-05-20T07:54:08.516Z,50.50
2019-05-20T07:55:09.134Z,51.10
2019-05-20T07:56:08.407Z,45.50
2019-05-20T07:57:08.547Z,44.00
2019-05-20T07:58:08.435Z,45.70
2019-05-20T07:59:08.734Z,43.90
2019-05-20T08:00:08.458Z,42.20
2019-05-20T08:01:08.472Z,45.60
2019-05-20T08:02:08.487Z,41.10
2019-05-20T08:03:08.377Z,44.70
2019-05-20T08:04:08.507Z,49.00
2019-05-20T08:05:08.376Z,52.00
2019-05-20T08:06:08.335Z,54.30
2019-05-20T08:07:26.838Z,56.70
2019-05-20T08:08:09.267Z,57.10
2019-05-20T08:09:08.442Z,59.90
2019-05-20T08:10:08.314Z,58.00
2019-05-20T08:11:08.318Z,54.50
2019-05-20T08:12:08.293Z,61.10
2019-05-20T08:13:08.456Z,54.40
2019-05-20T08:14:08.389Z,56.30
2019-05-20T08:15:08.995Z,62.30
2019-05-20T08:16:08.198Z,63.20
2019-05-20T08:17:08.208Z,60.60
2019-05-20T08:18:08.149Z,59.50
2019-05-20T08:19:08.158Z,59.10
2019-05-20T08:20:08.321Z,65.00
2019-05-20T08:21:08.333Z,59.20
2019-05-20T08:22:08.103Z,61.90
2019-05-20T08:23:08.124Z,57.60
2019-05-20T08:24:08.141Z,58.70
2019-05-20T08:25:08.121Z,55.50
2019-05-20T08:26:08.099Z,56.40
2019-05-20T08:27:08.149Z,56.10
2019-05-20T08:28:08.036Z,54.60
2019-05-20T08:29:08.034Z,51.10
2019-05-20T08:30:08.090Z,50.70
2019-05-20T08:31:08.002Z,53.50
2019-05-20T08:32:08.051Z,51.80
2019-05-20T08:33:08.003Z,53.30
2019-05-20T08:34:07.976Z,53.30
2019-05-20T08:35:08.137Z,56.30
2019-05-20T08:36:07.984Z,53.90
2019-05-20T08:37:08.002Z,54.60
2019-05-20T08:38:07.934Z,54.60
2019-05-20T08:39:07.943Z,52.30
2019-05-20T08:40:07.944Z,56.50
2019-05-20T08:41:07.974Z,54.80
2019-05-20T08:42:07.965Z,57.60
2019-05-20T08:43:07.977Z,58.80
2019-05-20T08:44:07.911Z,59.00
2019-05-20T08:45:07.887Z,57.80
2019-05-20T08:46:07.866Z,59.60
2019-05-20T08:47:08.195Z,61.90
2019-05-20T08:48:08.646Z,59.00
2019-05-20T08:49:11.109Z,53.00
2019-05-20T08:50:12.870Z,51.00
2019-05-20T08:51:08.859Z,53.80
2019-05-20T08:52:07.797Z,55.60
2019-05-20T08:53:07.994Z,54.80
2019-05-20T08:54:08.280Z,51.90
2019-05-20T08:55:07.920Z,51.80
2019-05-20T08:56:07.852Z,56.50
2019-05-20T08:57:07.939Z,55.70
2019-05-20T08:58:08.732Z,59.30
2019-05-20T08:59:08.039Z,62.60
2019-05-20T09:00:08.203Z,57.70
2019-05-20T09:01:09.110Z,60.00
2019-05-20T09:02:07.659Z,58.70
2019-05-20T09:03:07.662Z,54.90
2019-05-20T09:04:07.972Z,55.10
2019-05-20T09:05:08.038Z,58.10
2019-05-20T09:06:07.927Z,52.80
2019-05-20T09:07:07.614Z,54.00
2019-05-20T09:08:07.632Z,51.60
2019-05-20T09:09:11.794Z,53.50
2019-05-20T09:10:07.653Z,55.30
2019-05-20T09:11:07.577Z,55.50
2019-05-20T09:12:07.602Z,54.30
2019-05-20T09:13:07.537Z,56.50
2019-05-20T09:14:07.672Z,56.00
2019-05-20T09:15:08.082Z,54.60
2019-05-20T09:16:07.570Z,54.60
2019-05-20T09:17:07.484Z,52.60
2019-05-20T09:18:07.503Z,51.80
2019-05-20T09:19:07.562Z,52.70
2019-05-20T09:20:07.621Z,53.40
2019-05-20T09:21:07.561Z,51.70
2019-05-20T09:22:07.534Z,53.60
2019-05-20T09:23:07.437Z,52.20
2019-05-20T09:24:08.098Z,50.60
2019-05-20T09:25:07.643Z,53.20
2019-05-20T09:26:07.557Z,54.60
2019-05-20T09:27:07.869Z,54.10
2019-05-20T09:28:07.364Z,54.20
2019-05-20T09:29:11.089Z,53.40
2019-05-20T09:30:07.397Z,53.70
2019-05-20T09:31:07.673Z,57.90
2019-05-20T09:32:07.343Z,50.70
2019-05-20T09:33:07.743Z,54.20
2019-05-20T09:34:07.440Z,60.30
2019-05-20T09:35:07.333Z,58.10
2019-05-20T09:36:07.286Z,53.20
2019-05-20T09:37:07.900Z,55.40
2019-05-20T09:38:19.398Z,57.70
2019-05-20T09:39:08.770Z,54.20
2019-05-20T09:40:07.663Z,55.10
2019-05-20T09:41:07.338Z,54.30
2019-05-20T09:42:07.263Z,59.50
2019-05-20T09:43:07.203Z,53.30
2019-05-20T09:44:07.243Z,54.40
2019-05-20T09:45:07.176Z,56.40
2019-05-20T09:46:08.407Z,52.90
2019-05-20T09:47:07.235Z,49.00
2019-05-20T09:48:07.188Z,50.90
2019-05-20T09:49:07.325Z,49.00
2019-05-20T09:50:07.197Z,46.30
2019-05-20T09:51:07.208Z,46.90
2019-05-20T09:52:07.382Z,49.90
2019-05-20T09:53:07.784Z,50.50
2019-05-20T09:54:07.159Z,48.60
2019-05-20T09:55:07.089Z,47.10
2019-05-20T09:56:07.092Z,46.10
2019-05-20T09:57:07.089Z,45.00
2019-05-20T09:58:07.033Z,48.50
2019-05-20T09:59:07.014Z,43.80
2019-05-20T10:00:07.811Z,45.30
2019-05-20T10:01:07.094Z,44.40
2019-05-20T10:02:07.084Z,44.50
2019-05-20T10:03:07.801Z,46.00
2019-05-20T10:04:06.963Z,51.70
2019-05-20T10:05:07.459Z,43.40
2019-05-20T10:06:06.949Z,51.00
2019-05-20T10:07:07.018Z,52.60
2019-05-20T10:08:06.963Z,49.50
2019-05-20T10:09:07.107Z,51.50
2019-05-20T10:10:06.976Z,50.90
2019-05-20T10:11:06.960Z,49.50
2019-05-20T10:12:08.474Z,49.30
2019-05-20T10:13:07.390Z,45.50
2019-05-20T10:14:06.971Z,46.20
2019-05-20T10:15:06.885Z,44.60
2019-05-20T10:16:06.960Z,47.20
2019-05-20T10:17:06.988Z,44.80
2019-05-20T10:18:06.899Z,44.90
2019-05-20T10:19:06.831Z,44.10
2019-05-20T10:20:06.784Z,44.80
2019-05-20T10:21:06.820Z,44.60
2019-05-20T10:22:06.785Z,44.80
2019-05-20T10:23:06.927Z,45.20
2019-05-20T10:24:06.889Z,45.20
2019-05-20T10:25:06.790Z,42.40
2019-05-20T10:26:06.720Z,42.70
2019-05-20T10:27:06.745Z,44.10
2019-05-20T10:28:06.717Z,44.70
2019-05-20T10:29:06.734Z,44.50
2019-05-20T10:30:06.689Z,44.40
2019-05-20T10:31:06.804Z,43.60
2019-05-20T10:32:06.745Z,46.00
2019-05-20T10:33:09.528Z,46.80
2019-05-20T10:34:06.893Z,42.80
2019-05-20T10:35:08.162Z,41.30
2019-05-20T10:36:06.630Z,42.70
2019-05-20T10:37:06.620Z,45.90
2019-05-20T10:38:06.582Z,42.50
2019-05-20T10:39:07.898Z,45.00
2019-05-20T10:40:06.550Z,42.30
2019-05-20T10:41:06.649Z,43.90
2019-05-20T10:42:06.573Z,42.50
2019-05-20T10:43:08.358Z,45.00
2019-05-20T10:44:06.607Z,42.80
2019-05-20T10:45:06.509Z,42.90
2019-05-20T10:46:06.613Z,43.10
2019-05-20T10:47:06.483Z,44.40
2019-05-20T10:48:08.874Z,41.10
2019-05-20T10:49:06.454Z,42.30
2019-05-20T10:50:06.518Z,39.90
2019-05-20T10:51:10.231Z,46.00
2019-05-20T10:52:06.414Z,40.20
2019-05-20T10:53:06.488Z,40.00
2019-05-20T10:54:06.466Z,38.40
2019-05-20T10:55:06.887Z,40.50
2019-05-20T10:56:07.815Z,41.40
2019-05-20T10:57:06.484Z,40.00
2019-05-20T10:58:06.415Z,41.70
2019-05-20T10:59:11.912Z,41.40
2019-05-20T11:00:07.454Z,39.90
2019-05-20T11:01:06.751Z,42.00
2019-05-20T11:02:06.355Z,43.00
2019-05-20T11:03:06.611Z,42.40
2019-05-20T11:04:06.462Z,46.00
2019-05-20T11:05:06.313Z,43.00
2019-05-20T11:06:06.372Z,42.00
2019-05-20T11:07:06.276Z,43.20
2019-05-20T11:08:06.418Z,40.90
2019-05-20T11:09:13.998Z,41.90
2019-05-20T11:10:07.344Z,42.90
2019-05-20T11:11:06.257Z,45.20
2019-05-20T11:12:06.238Z,44.20
2019-05-20T11:13:06.249Z,44.90
2019-05-20T11:14:06.281Z,44.80
2019-05-20T11:15:06.349Z,46.50
2019-05-20T11:16:06.150Z,51.20
2019-05-20T11:17:06.269Z,50.00
2019-05-20T11:18:06.184Z,49.00
2019-05-20T11:19:06.116Z,47.80
2019-05-20T11:20:06.112Z,48.90
2019-05-20T11:21:06.254Z,50.60
2019-05-20T11:22:06.169Z,51.50
2019-05-20T11:23:06.104Z,47.00
2019-05-20T11:24:06.080Z,48.30
2019-05-20T11:25:06.069Z,47.60
2019-05-20T11:26:06.039Z,50.90
2019-05-20T11:27:06.089Z,45.20
2019-05-20T11:28:06.087Z,51.20
2019-05-20T11:29:06.195Z,50.80
2019-05-20T11:30:05.995Z,47.00
2019-05-20T11:31:06.106Z,49.40
2019-05-20T11:32:06.080Z,47.90
2019-05-20T11:33:05.959Z,48.70
2019-05-20T11:34:06.424Z,48.20
2019-05-20T11:35:05.983Z,49.60
2019-05-20T11:36:06.221Z,45.10
2019-05-20T11:37:06.002Z,45.70
2019-05-20T11:38:05.930Z,47.00
2019-05-20T11:39:07.301Z,47.40
2019-05-20T11:40:06.394Z,46.40
2019-05-20T11:41:05.975Z,46.30
2019-05-20T11:42:05.935Z,48.50
2019-05-20T11:43:05.862Z,44.70
2019-05-20T11:44:05.839Z,47.50
2019-05-20T11:45:05.821Z,45.90
2019-05-20T11:46:05.819Z,45.40
2019-05-20T11:47:05.805Z,45.70
2019-05-20T11:48:05.831Z,45.70
2019-05-20T11:49:05.782Z,44.90
2019-05-20T11:50:05.766Z,46.80
2019-05-20T11:51:05.808Z,47.20
2019-05-20T11:52:05.743Z,45.60
2019-05-20T11:53:05.757Z,47.20
2019-05-20T11:54:05.836Z,46.40
2019-05-20T11:55:05.727Z,48.30
2019-05-20T11:56:05.704Z,42.90
2019-05-20T11:57:05.744Z,45.70
2019-05-20T11:58:15.392Z,44.20
2019-05-20T11:59:06.692Z,43.40
2019-05-20T12:00:05.669Z,46.00
2019-05-20T12:01:05.679Z,47.60
2019-05-20T12:02:05.805Z,43.80
2019-05-20T12:03:05.642Z,46.80
2019-05-20T12:04:05.649Z,46.70
2019-05-20T12:05:05.620Z,45.00
2019-05-20T12:06:05.987Z,45.40
2019-05-20T12:07:08.459Z,44.40
2019-05-20T12:08:05.624Z,43.40
2019-05-20T12:09:05.578Z,44.80
2019-05-20T12:10:05.561Z,47.20
2019-05-20T12:11:05.622Z,43.20
2019-05-20T12:12:05.523Z,49.20
2019-05-20T12:13:05.572Z,45.30
2019-05-20T12:14:05.503Z,47.30
2019-05-20T12:15:06.362Z,51.00
2019-05-20T12:16:05.474Z,45.60
2019-05-20T12:17:05.544Z,49.50
2019-05-20T12:18:05.444Z,47.90
2019-05-20T12:19:05.476Z,47.10
2019-05-20T12:20:06.771Z,52.00
2019-05-20T12:21:05.411Z,50.30
2019-05-20T12:22:05.535Z,46.80
2019-05-20T12:23:05.499Z,48.90
2019-05-20T12:24:05.389Z,50.40
2019-05-20T12:25:05.418Z,54.40
2019-05-20T12:26:05.481Z,51.20
2019-05-20T12:27:05.414Z,52.10
2019-05-20T12:28:05.338Z,52.80
2019-05-20T12:29:05.373Z,48.20
2019-05-20T12:30:05.328Z,50.40
2019-05-20T12:31:05.462Z,51.60
2019-05-20T12:32:05.360Z,49.40
2019-05-20T12:33:18.511Z,51.10
2019-05-20T12:34:06.314Z,48.70
2019-05-20T12:35:05.260Z,51.10
2019-05-20T12:36:05.287Z,51.00
2019-05-20T12:37:05.244Z,46.70
2019-05-20T12:38:05.248Z,53.30
2019-05-20T12:39:05.328Z,48.70
2019-05-20T12:40:07.510Z,48.20
2019-05-20T12:41:05.219Z,49.40
2019-05-20T12:42:05.186Z,49.70
2019-05-20T12:43:05.191Z,49.50
2019-05-20T12:44:12.023Z,48.80
2019-05-20T12:45:06.189Z,50.00
2019-05-20T12:46:05.160Z,50.80
2019-05-20T12:47:05.181Z,51.80
2019-05-20T12:48:05.125Z,54.00
2019-05-20T12:49:05.277Z,52.10
2019-05-20T12:50:05.144Z,50.90
2019-05-20T12:51:05.081Z,54.70